Time;durP1;ratioP1;P1;durP2;ratioP2;P2;SDS_P1;SDS_P2;PMS_P1;PMS_P2;Temp;Humidity;BMP_temperature;BMP_pressure;BME280_temperature;BME280_humidity;BME280_pressure;Samples;Min_cycle;Max_cycle;Signal;HPM_P1;HPM_P2
2023/01/26 00:01:45;;;;;;;14.35;5.55;;;2.70;79.50;;;;;;4971632;28;89572;-71
2023/01/26 00:04:11;;;;;;;13.73;5.80;;;2.80;79.10;;;;;;4978164;28;87592;-69
2023/01/26 00:06:37;;;;;;;12.98;5.57;;;2.80;79.70;;;;;;4978145;28;87556;-71
2023/01/26 00:09:03;;;;;;;11.18;5.28;;;2.80;79.50;;;;;;4983862;28;88352;-71
2023/01/26 00:11:29;;;;;;;13.80;6.45;;;2.90;79.20;;;;;;4994374;28;87513;-70
2023/01/26 00:13:57;;;;;;;12.98;6.28;;;3.00;78.90;;;;;;4985033;28;87496;-72
2023/01/26 00:16:23;;;;;;;13.40;5.90;;;2.90;78.50;;;;;;4978455;28;88897;-71
2023/01/26 00:18:49;;;;;;;13.38;5.75;;;2.80;78.60;;;;;;4978736;28;88753;-72
2023/01/26 00:21:18;;;;;;;13.43;5.47;;;2.90;78.70;;;;;;4990810;28;87557;-72
2023/01/26 00:23:44;;;;;;;13.23;5.55;;;2.90;79.30;;;;;;4983925;28;87570;-72
2023/01/26 00:26:13;;;;;;;12.38;5.68;;;2.90;79.30;;;;;;4988943;28;88255;-73
2023/01/26 00:28:39;;;;;;;11.80;5.55;;;3.00;79.20;;;;;;4999363;28;87954;-73
2023/01/26 00:31:09;;;;;;;12.85;5.85;;;3.00;78.40;;;;;;4999807;28;87507;-73
2023/01/26 00:33:35;;;;;;;13.93;5.78;;;2.90;78.90;;;;;;4985605;28;87872;-72
2023/01/26 00:36:00;;;;;;;14.25;5.63;;;2.90;78.70;;;;;;4982817;28;87534;-73
2023/01/26 00:38:26;;;;;;;10.60;4.57;;;2.90;78.40;;;;;;4980060;28;88471;-72
2023/01/26 00:40:52;;;;;;;12.63;6.10;;;2.90;78.50;;;;;;4972228;28;88004;-72
2023/01/26 00:43:18;;;;;;;12.43;5.88;;;2.80;78.60;;;;;;4973311;28;87763;-72
2023/01/26 00:45:44;;;;;;;12.30;5.60;;;2.80;78.90;;;;;;4979509;28;87736;-72
2023/01/26 00:48:09;;;;;;;13.65;5.90;;;2.80;78.70;;;;;;4985276;28;87442;-73
2023/01/26 00:50:35;;;;;;;14.18;5.75;;;2.70;79.30;;;;;;4983218;28;87636;-73
2023/01/26 00:53:01;;;;;;;19.27;6.28;;;2.70;79.40;;;;;;4983770;28;87506;-73
2023/01/26 00:55:31;;;;;;;14.57;5.70;;;2.80;79.80;;;;;;4971692;28;87997;-73
2023/01/26 00:58:01;;;;;;;12.50;5.97;;;2.80;79.70;;;;;;4977908;28;89628;-73
2023/01/26 01:00:27;;;;;;;12.10;5.85;;;2.80;79.90;;;;;;4968735;28;87534;-72
2023/01/26 01:02:55;;;;;;;13.30;5.68;;;2.80;79.80;;;;;;4978069;28;89323;-72
2023/01/26 01:05:22;;;;;;;13.13;5.90;;;2.80;79.50;;;;;;4980833;28;89230;-73
2023/01/26 01:07:47;;;;;;;13.70;6.28;;;2.80;80.10;;;;;;4967653;28;88346;-72
2023/01/26 01:10:13;;;;;;;14.93;6.43;;;2.80;79.90;;;;;;4981725;28;87471;-70
2023/01/26 01:12:39;;;;;;;13.77;6.32;;;2.80;80.20;;;;;;4978417;28;87843;-70
2023/01/26 01:15:05;;;;;;;15.20;6.70;;;2.80;80.10;;;;;;4982536;28;87751;-71
2023/01/26 01:17:31;;;;;;;15.25;6.95;;;2.80;79.90;;;;;;4980636;28;89439;-70
2023/01/26 01:19:57;;;;;;;15.65;7.28;;;2.80;79.90;;;;;;4974781;28;87553;-72
2023/01/26 01:22:23;;;;;;;14.63;6.65;;;2.70;80.20;;;;;;4975987;28;86656;-71
2023/01/26 01:24:49;;;;;;;15.55;6.82;;;2.70;80.50;;;;;;4986976;28;87629;-70
2023/01/26 01:27:14;;;;;;;16.15;7.22;;;2.60;80.70;;;;;;4978509;28;87390;-70
2023/01/26 01:29:40;;;;;;;15.10;7.05;;;2.60;81.10;;;;;;4976767;28;88145;-71
2023/01/26 01:32:06;;;;;;;18.10;7.40;;;2.50;81.40;;;;;;4996707;28;87428;-70
2023/01/26 01:34:31;;;;;;;15.48;6.60;;;2.60;81.30;;;;;;4998643;28;87652;-71
2023/01/26 01:36:57;;;;;;;14.50;6.43;;;2.60;81.30;;;;;;4998573;28;87934;-71
2023/01/26 01:39:22;;;;;;;14.27;7.00;;;2.70;81.40;;;;;;4983158;28;87462;-72
2023/01/26 01:41:48;;;;;;;15.00;7.20;;;2.70;81.20;;;;;;4971021;28;87615;-71
2023/01/26 01:44:25;;;;;;;16.08;6.68;;;2.70;81.40;;;;;;4978454;28;89108;-71
2023/01/26 01:46:50;;;;;;;14.52;6.43;;;2.70;81.50;;;;;;4962006;28;88167;-73
2023/01/26 01:49:25;;;;;;;16.88;6.90;;;2.70;81.70;;;;;;4975660;28;87407;-71
2023/01/26 01:52:05;;;;;;;15.60;7.03;;;2.60;82.10;;;;;;4976601;28;87652;-72
2023/01/26 01:54:42;;;;;;;16.48;6.95;;;2.50;82.30;;;;;;4973798;28;88722;-72
2023/01/26 01:57:17;;;;;;;14.93;6.45;;;2.60;82.40;;;;;;4969567;28;88978;-74
2023/01/26 01:59:53;;;;;;;17.10;7.00;;;2.60;82.40;;;;;;4977825;28;87493;-71
2023/01/26 02:02:19;;;;;;;19.15;7.30;;;2.60;82.10;;;;;;4965805;28;87395;-72
2023/01/26 02:04:45;;;;;;;17.73;7.05;;;2.50;82.10;;;;;;4969873;28;88012;-72
2023/01/26 02:07:12;;;;;;;15.80;6.93;;;2.60;82.20;;;;;;4984799;28;87502;-73
2023/01/26 02:12:31;;;;;;;14.32;6.43;;;2.50;82.30;;;;;;4978645;28;86862;-71
2023/01/26 02:14:59;;;;;;;16.02;5.95;;;2.40;82.40;;;;;;4972421;28;88615;-70
2023/01/26 02:17:24;;;;;;;17.20;6.53;;;2.40;82.30;;;;;;4978116;28;87850;-72
2023/01/26 02:19:53;;;;;;;14.57;6.25;;;2.30;82.30;;;;;;4976883;28;88274;-72
2023/01/26 02:22:46;;;;;;;15.45;6.07;;;2.30;82.90;;;;;;4978757;28;87500;-73
2023/01/26 02:25:20;;;;;;;15.90;6.40;;;2.20;82.80;;;;;;4976796;28;88951;-71
2023/01/26 02:27:47;;;;;;;16.55;6.32;;;2.20;82.90;;;;;;4977400;28;88852;-71
2023/01/26 02:30:14;;;;;;;17.55;6.32;;;2.10;83.20;;;;;;4979174;28;87272;-72
2023/01/26 02:32:39;;;;;;;14.57;6.18;;;2.10;83.80;;;;;;4974476;28;89485;-73
2023/01/26 02:35:05;;;;;;;14.52;6.20;;;2.10;83.30;;;;;;4977568;28;90075;-73
2023/01/26 02:37:31;;;;;;;17.98;6.15;;;2.10;82.90;;;;;;4976385;28;88282;-73
2023/01/26 02:40:23;;;;;;;18.45;6.40;;;2.10;82.90;;;;;;4976016;28;87487;-73
2023/01/26 02:42:53;;;;;;;16.50;6.63;;;2.20;83.00;;;;;;4972691;28;87139;-73
2023/01/26 02:45:20;;;;;;;14.43;6.15;;;2.30;81.90;;;;;;4983315;28;89868;-73
2023/01/26 02:47:46;;;;;;;15.50;5.63;;;2.30;82.30;;;;;;4977021;28;89096;-73
2023/01/26 02:50:12;;;;;;;15.10;6.00;;;2.40;82.10;;;;;;4976910;28;87420;-73
2023/01/26 02:52:39;;;;;;;15.02;5.82;;;2.40;82.10;;;;;;4977200;28;87956;-72
2023/01/26 02:55:24;;;;;;;16.05;5.90;;;2.40;81.50;;;;;;4973672;28;87662;-72
2023/01/26 02:57:53;;;;;;;16.88;6.30;;;2.40;81.60;;;;;;4978638;28;87787;-74
2023/01/26 03:00:40;;;;;;;15.00;6.00;;;2.40;81.70;;;;;;4977816;28;87855;-72
2023/01/26 03:03:14;;;;;;;17.05;6.28;;;2.50;81.80;;;;;;4975494;28;87928;-72
2023/01/26 03:05:40;;;;;;;15.35;6.15;;;2.50;81.60;;;;;;4982196;28;87942;-74
2023/01/26 03:08:05;;;;;;;17.08;5.90;;;2.50;81.60;;;;;;4972079;28;88230;-72
2023/01/26 03:10:32;;;;;;;18.08;6.45;;;2.50;81.30;;;;;;4975749;28;88454;-72
2023/01/26 03:12:58;;;;;;;18.27;6.97;;;2.40;81.60;;;;;;4987548;28;87528;-74
2023/01/26 03:15:46;;;;;;;15.10;6.07;;;2.40;81.90;;;;;;4987168;28;88103;-73
2023/01/26 03:29:25;;;;;;;17.40;6.95;;;2.30;82.20;;;;;;4975105;28;87123;-74
2023/01/26 03:31:51;;;;;;;18.85;7.18;;;2.30;84.00;;;;;;4976593;28;88105;-74
2023/01/26 03:34:17;;;;;;;18.35;6.93;;;2.40;82.50;;;;;;4973910;28;87694;-74
2023/01/26 03:36:43;;;;;;;17.77;7.72;;;2.40;82.90;;;;;;4979201;28;88768;-73
2023/01/26 03:39:08;;;;;;;16.73;6.70;;;2.50;82.50;;;;;;4980708;28;88122;-73
2023/01/26 03:58:00;;;;;;;18.92;7.82;;;2.60;81.90;;;;;;4979771;28;88222;-72
2023/01/26 04:00:26;;;;;;;21.65;7.75;;;2.70;82.00;;;;;;4988781;28;87812;-73
2023/01/26 04:08:22;;;;;;;17.95;7.13;;;2.80;81.50;;;;;;4969731;28;87378;-73
2023/01/26 04:10:53;;;;;;;17.10;7.03;;;2.80;81.60;;;;;;4977570;28;87610;-73
2023/01/26 04:21:34;;;;;;;15.73;6.47;;;2.70;81.60;;;;;;4972044;28;88307;-73
2023/01/26 04:24:08;;;;;;;16.25;6.38;;;2.70;81.40;;;;;;4975199;28;89043;-73
2023/01/26 04:26:35;;;;;;;14.73;5.75;;;2.70;81.40;;;;;;4967291;28;89289;-73
2023/01/26 04:29:03;;;;;;;16.33;6.45;;;2.60;81.50;;;;;;4967684;28;91179;-73
2023/01/26 04:31:28;;;;;;;16.58;6.97;;;2.50;81.70;;;;;;4966354;28;88866;-73
2023/01/26 04:33:54;;;;;;;16.50;5.78;;;2.50;81.90;;;;;;4972529;28;87288;-73
2023/01/26 04:36:20;;;;;;;17.35;6.70;;;2.50;82.30;;;;;;4966138;28;87569;-73
2023/01/26 04:38:45;;;;;;;17.00;6.93;;;2.40;82.50;;;;;;4966921;28;88584;-74
2023/01/26 04:41:11;;;;;;;16.02;6.60;;;2.50;82.50;;;;;;4971059;28;87820;-74
2023/01/26 04:43:37;;;;;;;16.83;6.50;;;2.40;82.00;;;;;;4975685;28;87306;-73
2023/01/26 04:46:05;;;;;;;19.27;6.43;;;2.40;82.30;;;;;;4983572;28;88309;-74
2023/01/26 04:48:31;;;;;;;18.50;7.32;;;2.40;82.10;;;;;;4975880;28;89233;-73
2023/01/26 04:51:06;;;;;;;20.67;7.25;;;2.40;82.40;;;;;;4979426;28;87829;-74
2023/01/26 04:53:32;;;;;;;18.13;6.95;;;2.50;81.70;;;;;;4986486;28;88312;-74
2023/01/26 04:55:58;;;;;;;19.70;7.05;;;2.50;81.60;;;;;;4993710;28;88994;-73
2023/01/26 04:58:24;;;;;;;17.20;7.13;;;2.50;81.00;;;;;;4982339;28;87973;-71
2023/01/26 05:00:52;;;;;;;17.90;5.82;;;2.50;80.90;;;;;;4984497;28;88429;-72
2023/01/26 05:03:18;;;;;;;18.42;7.00;;;2.50;80.40;;;;;;4983466;28;87863;-72
2023/01/26 05:05:43;;;;;;;15.10;6.57;;;2.50;80.50;;;;;;4992698;28;87471;-72
2023/01/26 05:08:09;;;;;;;19.38;7.05;;;2.50;79.50;;;;;;4986962;28;87887;-72
2023/01/26 05:10:35;;;;;;;16.10;6.70;;;2.40;79.40;;;;;;4986290;28;87743;-73
2023/01/26 05:13:00;;;;;;;15.27;6.32;;;2.40;79.30;;;;;;4995764;28;87678;-72
2023/01/26 05:15:26;;;;;;;18.17;7.05;;;2.40;79.70;;;;;;4979954;28;87942;-72
2023/01/26 05:17:52;;;;;;;16.92;6.57;;;2.40;79.50;;;;;;4972563;28;89003;-72
2023/01/26 05:20:17;;;;;;;17.23;7.22;;;2.40;79.50;;;;;;4975916;28;88883;-72
2023/01/26 05:22:43;;;;;;;19.25;7.50;;;2.40;79.30;;;;;;4985545;28;87118;-72
2023/01/26 05:25:09;;;;;;;19.10;7.68;;;2.40;79.50;;;;;;4975268;28;87368;-71
2023/01/26 05:27:35;;;;;;;18.52;7.90;;;2.40;79.40;;;;;;4974274;28;87649;-72
2023/01/26 05:30:00;;;;;;;19.45;7.90;;;2.40;79.70;;;;;;4976107;28;87853;-71
2023/01/26 05:32:30;;;;;;;20.75;8.98;;;2.30;79.60;;;;;;4974042;28;87385;-72
2023/01/26 05:34:56;;;;;;;19.73;8.52;;;2.40;79.80;;;;;;4968219;28;87230;-71
2023/01/26 05:37:26;;;;;;;19.90;8.05;;;2.40;79.90;;;;;;4974788;28;89371;-71
2023/01/26 05:39:52;;;;;;;22.27;8.30;;;2.40;79.80;;;;;;4972509;28;89053;-72
2023/01/26 05:42:18;;;;;;;21.25;8.13;;;2.30;79.50;;;;;;4976916;28;88357;-71
2023/01/26 05:44:44;;;;;;;19.17;7.95;;;2.30;79.30;;;;;;4982656;28;87308;-72
2023/01/26 05:47:10;;;;;;;19.90;7.75;;;2.30;79.20;;;;;;4970007;28;88322;-73
2023/01/26 05:49:41;;;;;;;19.40;8.15;;;2.30;79.40;;;;;;4969259;28;87992;-71
2023/01/26 05:52:13;;;;;;;18.08;7.90;;;2.30;79.80;;;;;;4969104;28;87955;-73
2023/01/26 05:54:38;;;;;;;20.05;7.85;;;2.20;79.40;;;;;;4973034;28;87321;-73
2023/01/26 05:57:04;;;;;;;21.13;8.10;;;2.30;79.40;;;;;;4966987;28;88097;-72
2023/01/26 05:59:30;;;;;;;18.80;8.13;;;2.30;79.20;;;;;;4973273;28;87080;-72
2023/01/26 06:01:56;;;;;;;17.27;7.97;;;2.40;79.40;;;;;;4972443;28;88920;-73
2023/01/26 06:04:22;;;;;;;20.02;7.53;;;2.40;79.30;;;;;;4980911;28;87283;-73
2023/01/26 06:06:48;;;;;;;21.05;8.10;;;2.50;78.80;;;;;;4970933;28;89308;-72
2023/01/26 06:09:14;;;;;;;20.13;8.27;;;2.40;78.70;;;;;;4967379;28;89219;-72
2023/01/26 06:11:39;;;;;;;17.85;7.82;;;2.50;78.90;;;;;;4965885;28;89134;-73
2023/01/26 06:14:05;;;;;;;19.20;7.03;;;2.40;78.60;;;;;;4969449;28;87478;-72
2023/01/26 06:16:31;;;;;;;18.75;7.10;;;2.40;78.80;;;;;;4973991;28;89342;-73
2023/01/26 06:18:57;;;;;;;22.55;8.77;;;2.40;79.00;;;;;;4973248;28;87389;-73
2023/01/26 06:21:23;;;;;;;19.60;8.60;;;2.30;78.70;;;;;;4966627;28;87532;-72
2023/01/26 06:23:48;;;;;;;22.98;8.95;;;2.30;79.00;;;;;;4976530;28;86686;-71
2023/01/26 06:26:14;;;;;;;20.88;8.65;;;2.20;79.10;;;;;;4971874;28;87875;-73
2023/01/26 06:28:40;;;;;;;19.02;8.48;;;2.30;79.70;;;;;;4978117;28;90820;-72
2023/01/26 06:31:07;;;;;;;18.60;7.68;;;2.40;79.30;;;;;;4978440;28;88296;-72
2023/01/26 06:33:35;;;;;;;19.67;8.10;;;2.40;78.80;;;;;;4971468;28;87799;-72
2023/01/26 06:36:13;;;;;;;19.10;7.95;;;2.40;78.70;;;;;;4970248;28;91376;-71
2023/01/26 06:38:44;;;;;;;19.17;7.85;;;2.40;78.50;;;;;;4974594;28;91454;-73
2023/01/26 06:41:10;;;;;;;18.30;8.10;;;2.40;78.30;;;;;;4968712;28;87836;-72
2023/01/26 06:43:36;;;;;;;20.33;8.20;;;2.40;78.40;;;;;;4981577;28;87478;-71
2023/01/26 06:46:03;;;;;;;18.05;7.55;;;2.40;79.00;;;;;;4973970;28;88744;-71
2023/01/26 06:48:31;;;;;;;17.73;7.63;;;2.40;78.90;;;;;;4975150;28;89732;-72
2023/01/26 06:51:15;;;;;;;18.55;7.57;;;2.40;78.60;;;;;;4991696;28;87163;-71
2023/01/26 06:53:47;;;;;;;;;;;2.40;78.40;;;;;;4984804;28;87516;-72
2023/01/26 06:56:13;;;;;;;22.67;7.35;;;2.30;78.60;;;;;;4970255;28;90368;-73
2023/01/26 06:58:39;;;;;;;21.77;7.63;;;2.30;78.60;;;;;;4985970;28;88618;-71
2023/01/26 07:01:05;;;;;;;19.80;7.57;;;2.30;78.40;;;;;;4968770;28;87694;-71
2023/01/26 07:03:31;;;;;;;21.08;7.65;;;2.30;78.80;;;;;;4969635;28;88447;-72
2023/01/26 07:05:57;;;;;;;18.13;7.75;;;2.40;78.90;;;;;;4976424;28;88115;-72
2023/01/26 07:08:23;;;;;;;19.95;7.85;;;2.40;78.00;;;;;;4964325;28;90121;-73
2023/01/26 07:10:50;;;;;;;22.88;7.70;;;2.40;77.80;;;;;;4970992;28;88040;-73
2023/01/26 07:13:15;;;;;;;18.27;7.97;;;2.40;78.20;;;;;;4974782;28;86407;-72
2023/01/26 07:15:41;;;;;;;19.90;7.45;;;2.30;78.10;;;;;;4974297;28;91752;-73
2023/01/26 07:18:07;;;;;;;17.13;7.32;;;2.30;78.40;;;;;;4967373;28;91456;-73
2023/01/26 07:20:33;;;;;;;20.02;8.38;;;2.20;78.30;;;;;;4964337;28;88936;-72
2023/01/26 07:22:59;;;;;;;19.98;7.88;;;2.20;79.10;;;;;;4974229;28;87603;-71
2023/01/26 07:25:26;;;;;;;19.73;7.93;;;2.20;78.50;;;;;;4987004;28;91632;-72
2023/01/26 07:27:56;;;;;;;18.75;7.75;;;2.20;78.90;;;;;;4974406;28;90953;-72
2023/01/26 07:30:22;;;;;;;20.77;8.18;;;2.20;79.20;;;;;;4967824;28;88940;-73
2023/01/26 07:32:48;;;;;;;20.17;8.27;;;2.20;78.90;;;;;;4965025;28;88094;-73
2023/01/26 07:35:13;;;;;;;21.67;8.38;;;2.20;79.20;;;;;;4967648;28;91027;-73
2023/01/26 07:37:39;;;;;;;19.25;8.07;;;2.20;79.20;;;;;;4957036;28;88259;-72
2023/01/26 07:40:06;;;;;;;20.10;7.28;;;2.20;79.00;;;;;;4955270;28;88353;-72
2023/01/26 07:42:31;;;;;;;18.33;7.25;;;2.20;79.20;;;;;;4968915;28;87792;-73
2023/01/26 07:44:58;;;;;;;20.20;7.80;;;2.20;79.20;;;;;;4954299;28;90147;-72
2023/01/26 07:47:24;;;;;;;17.50;6.93;;;2.30;79.00;;;;;;4951688;28;90665;-73
2023/01/26 07:49:50;;;;;;;19.35;8.20;;;2.30;78.20;;;;;;4981236;28;87313;-73
2023/01/26 07:52:16;;;;;;;22.73;8.20;;;2.30;79.00;;;;;;4974319;28;87531;-73
2023/01/26 07:54:42;;;;;;;20.38;7.97;;;2.30;78.40;;;;;;4960707;28;88241;-73
2023/01/26 07:57:07;;;;;;;19.80;8.82;;;2.20;78.20;;;;;;4964729;28;88465;-72
2023/01/26 07:59:33;;;;;;;17.65;6.75;;;2.10;78.80;;;;;;4963926;28;87757;-73
2023/01/26 08:01:59;;;;;;;20.30;7.07;;;2.10;78.80;;;;;;4975977;28;86669;-73
2023/01/26 08:04:25;;;;;;;22.27;8.35;;;2.10;79.10;;;;;;4982290;28;87783;-73
2023/01/26 08:06:51;;;;;;;18.08;7.82;;;2.20;78.90;;;;;;4976010;28;87431;-72
2023/01/26 08:09:17;;;;;;;21.55;7.93;;;2.20;79.20;;;;;;4964067;28;88565;-72
2023/01/26 08:11:43;;;;;;;20.45;7.70;;;2.20;79.10;;;;;;4972622;28;87482;-73
2023/01/26 08:14:08;;;;;;;20.75;7.95;;;2.20;78.60;;;;;;4976257;28;87241;-72
2023/01/26 08:16:34;;;;;;;23.33;8.55;;;2.10;79.10;;;;;;4973918;28;87864;-72
2023/01/26 08:19:00;;;;;;;20.23;8.32;;;2.20;79.80;;;;;;4965451;28;87649;-72
2023/01/26 08:21:26;;;;;;;22.70;8.98;;;2.20;78.70;;;;;;4968158;28;88786;-73
2023/01/26 08:23:52;;;;;;;26.05;9.43;;;2.20;78.60;;;;;;4975074;28;87508;-73
2023/01/26 08:26:19;;;;;;;24.13;9.80;;;2.20;79.20;;;;;;4979700;28;87851;-72
2023/01/26 08:28:45;;;;;;;19.73;8.55;;;2.20;79.10;;;;;;4971616;28;87499;-73
2023/01/26 08:31:17;;;;;;;21.27;8.98;;;2.20;78.50;;;;;;4980163;28;87396;-72
2023/01/26 08:33:43;;;;;;;19.50;8.13;;;2.20;78.90;;;;;;4978551;28;88248;-72
2023/01/26 08:36:14;;;;;;;22.33;7.95;;;2.30;78.30;;;;;;4974863;28;88970;-72
2023/01/26 08:38:40;;;;;;;27.60;11.05;;;2.30;78.50;;;;;;4968489;28;87465;-73
2023/01/26 08:41:07;;;;;;;20.15;8.38;;;2.30;78.70;;;;;;4987175;28;87513;-72
2023/01/26 08:43:33;;;;;;;18.35;7.88;;;2.40;78.20;;;;;;4971450;28;88481;-72
2023/01/26 08:45:58;;;;;;;20.27;8.27;;;2.40;77.70;;;;;;4974728;28;87699;-73
2023/01/26 08:48:24;;;;;;;22.17;8.55;;;2.40;77.60;;;;;;4970383;28;87375;-72
2023/01/26 08:50:55;;;;;;;22.52;9.25;;;2.40;78.00;;;;;;4967157;28;86496;-72
2023/01/26 08:53:22;;;;;;;18.85;7.47;;;2.40;78.20;;;;;;4971897;28;89977;-73
2023/01/26 08:55:47;;;;;;;23.15;8.52;;;2.40;77.90;;;;;;4972449;28;87367;-72
2023/01/26 08:58:13;;;;;;;18.98;7.82;;;2.40;77.20;;;;;;4974892;28;88212;-73
2023/01/26 09:00:39;;;;;;;22.10;7.68;;;2.40;78.00;;;;;;4975123;28;87142;-73
2023/01/26 09:03:05;;;;;;;20.45;7.80;;;2.40;78.20;;;;;;4978386;28;87568;-72
2023/01/26 09:05:33;;;;;;;25.30;8.10;;;2.50;77.80;;;;;;4974945;28;87462;-73
2023/01/26 09:07:59;;;;;;;23.20;9.02;;;2.60;77.00;;;;;;4982625;28;87447;-73
2023/01/26 09:10:24;;;;;;;21.38;8.60;;;2.50;77.70;;;;;;4969974;28;87493;-73
2023/01/26 09:12:50;;;;;;;22.23;8.18;;;2.50;77.30;;;;;;4989684;28;87497;-72
2023/01/26 09:15:16;;;;;;;17.63;6.88;;;2.60;77.30;;;;;;4978348;28;87436;-74
2023/01/26 09:17:42;;;;;;;17.27;7.05;;;2.60;77.30;;;;;;4978122;28;87556;-72
2023/01/26 09:20:09;;;;;;;22.63;8.70;;;2.60;77.10;;;;;;4976949;28;88197;-71
2023/01/26 09:22:35;;;;;;;19.70;7.40;;;2.50;76.70;;;;;;4966195;28;89281;-74
2023/01/26 09:25:01;;;;;;;20.63;8.48;;;2.50;77.10;;;;;;4973467;28;88236;-73
2023/01/26 09:27:26;;;;;;;19.02;7.80;;;2.40;77.80;;;;;;4973599;28;87453;-73
2023/01/26 09:29:52;;;;;;;19.30;7.80;;;2.40;77.80;;;;;;4971342;28;87210;-72
2023/01/26 09:32:18;;;;;;;20.25;8.23;;;2.30;77.60;;;;;;4967612;28;87725;-72
2023/01/26 09:34:44;;;;;;;19.15;7.53;;;2.30;78.10;;;;;;4966642;28;87526;-72
2023/01/26 09:37:10;;;;;;;21.75;7.57;;;2.30;77.90;;;;;;4968528;28;87292;-73
2023/01/26 09:39:35;;;;;;;22.38;7.97;;;2.30;78.40;;;;;;4965257;28;87869;-72
2023/01/26 09:42:01;;;;;;;23.77;8.93;;;2.40;78.30;;;;;;4976932;28;87681;-71
2023/01/26 09:44:32;;;;;;;22.05;8.85;;;2.50;78.30;;;;;;4980691;28;87848;-72
2023/01/26 09:47:10;;;;;;;;;;;2.50;77.80;;;;;;4975631;28;88379;-73
2023/01/26 09:49:45;;;;;;;24.63;10.25;;;2.50;77.30;;;;;;4984468;28;87506;-73
2023/01/26 09:52:23;;;;;;;26.25;10.70;;;2.50;77.70;;;;;;4976411;28;87432;-72
2023/01/26 09:54:54;;;;;;;21.45;8.25;;;2.60;77.30;;;;;;4974517;28;87579;-73
2023/01/26 09:57:27;;;;;;;20.15;9.90;;;2.60;77.50;;;;;;4973768;28;87644;-73
2023/01/26 10:00:04;;;;;;;18.80;8.20;;;2.50;77.50;;;;;;4969142;28;87385;-73
2023/01/26 10:02:48;;;;;;;19.10;7.90;;;2.60;77.50;;;;;;4974507;28;87497;-73
2023/01/26 10:05:37;;;;;;;19.48;7.53;;;2.60;77.30;;;;;;4984142;28;87470;-73
2023/01/26 10:08:07;;;;;;;20.52;8.88;;;2.60;77.40;;;;;;4978681;28;87512;-73
2023/01/26 10:10:37;;;;;;;23.70;8.70;;;2.70;77.60;;;;;;4969665;28;87419;-73
2023/01/26 10:13:03;;;;;;;;;;;2.60;77.20;;;;;;4974883;28;89611;-73
2023/01/26 10:15:37;;;;;;;19.98;8.10;;;2.60;77.10;;;;;;4978042;28;88222;-73
2023/01/26 10:18:18;;;;;;;21.50;8.30;;;2.50;77.60;;;;;;4976358;28;87402;-73
2023/01/26 10:20:51;;;;;;;24.75;8.77;;;2.50;77.90;;;;;;4973075;28;87337;-73
2023/01/26 10:23:30;;;;;;;22.08;8.50;;;2.60;77.90;;;;;;4970380;28;87784;-73
2023/01/26 10:26:10;;;;;;;22.67;8.63;;;2.60;77.50;;;;;;4990936;28;87872;-73
2023/01/26 10:28:35;;;;;;;18.30;8.20;;;2.70;78.30;;;;;;4973128;28;87635;-73
2023/01/26 10:31:04;;;;;;;21.75;8.88;;;2.70;77.50;;;;;;4970540;28;87019;-73
2023/01/26 10:33:34;;;;;;;22.73;8.70;;;2.80;77.60;;;;;;4980375;28;87583;-73
2023/01/26 10:36:05;;;;;;;19.73;7.93;;;2.90;76.70;;;;;;4974995;28;87744;-73
2023/01/26 10:38:34;;;;;;;21.10;8.60;;;2.90;76.40;;;;;;4976588;28;88698;-73
2023/01/26 10:41:02;;;;;;;20.08;8.32;;;2.90;75.90;;;;;;4978011;28;87805;-73
2023/01/26 10:43:29;;;;;;;23.17;8.90;;;2.80;76.20;;;;;;4984609;28;88263;-73
2023/01/26 10:45:54;;;;;;;24.83;8.82;;;2.70;76.80;;;;;;4982154;28;87481;-73
2023/01/26 10:48:23;;;;;;;20.48;8.98;;;2.70;77.10;;;;;;4979458;28;87296;-73
2023/01/26 10:50:49;;;;;;;22.85;8.57;;;2.70;77.20;;;;;;4983592;28;87096;-73
2023/01/26 10:53:15;;;;;;;22.70;8.70;;;2.70;77.20;;;;;;4966699;28;88101;-73
2023/01/26 10:55:41;;;;;;;21.65;8.63;;;2.80;78.10;;;;;;4982399;28;88086;-73
2023/01/26 10:58:40;;;;;;;23.55;8.80;;;2.80;77.40;;;;;;4978579;28;87315;-73
2023/01/26 11:01:11;;;;;;;23.15;8.65;;;2.80;77.50;;;;;;4974797;28;87228;-73
2023/01/26 11:03:37;;;;;;;22.65;8.75;;;2.90;78.40;;;;;;4974669;28;89233;-73
2023/01/26 11:06:13;;;;;;;21.25;8.40;;;2.90;76.90;;;;;;4985616;28;88703;-74
2023/01/26 11:08:38;;;;;;;17.88;7.10;;;2.90;77.00;;;;;;4997868;28;87403;-73
2023/01/26 11:11:09;;;;;;;22.92;8.10;;;3.00;76.90;;;;;;4997162;28;88906;-73
2023/01/26 11:13:35;;;;;;;23.08;8.75;;;2.90;77.00;;;;;;4994840;28;88070;-73
2023/01/26 11:16:21;;;;;;;22.48;8.68;;;2.90;76.90;;;;;;4987647;28;87910;-73
2023/01/26 11:18:58;;;;;;;20.42;8.43;;;2.80;76.80;;;;;;4967099;28;87581;-73
2023/01/26 11:21:40;;;;;;;19.58;8.15;;;2.80;77.30;;;;;;4974397;28;86563;-73
2023/01/26 11:24:16;;;;;;;20.73;8.70;;;2.90;77.60;;;;;;4965579;28;88263;-73
2023/01/26 11:26:50;;;;;;;22.52;8.90;;;3.00;77.80;;;;;;4973525;28;89356;-73
2023/01/26 11:29:25;;;;;;;38.05;11.52;;;3.00;77.20;;;;;;4968199;28;89701;-73
2023/01/26 11:32:07;;;;;;;24.15;9.63;;;3.10;77.20;;;;;;4964002;28;87644;-72
2023/01/26 11:34:43;;;;;;;19.40;8.25;;;3.10;77.50;;;;;;4968801;28;88138;-74
2023/01/26 11:37:20;;;;;;;22.73;8.88;;;3.20;76.80;;;;;;4964081;28;87709;-74
2023/01/26 11:40:06;;;;;;;20.92;8.40;;;3.20;76.50;;;;;;4964828;28;87425;-71
2023/01/26 11:43:07;;;;;;;21.60;7.95;;;3.10;76.80;;;;;;4960408;28;87501;-71
2023/01/26 11:45:42;;;;;;;19.55;8.35;;;3.10;77.00;;;;;;4965231;28;89860;-72
2023/01/26 11:48:16;;;;;;;22.90;8.05;;;3.10;76.90;;;;;;4963707;28;87091;-72
2023/01/26 11:50:56;;;;;;;23.25;8.70;;;3.10;77.30;;;;;;4972763;28;87284;-72
2023/01/26 11:53:36;;;;;;;21.20;8.10;;;3.10;77.50;;;;;;4962165;28;88850;-72
2023/01/26 11:56:29;;;;;;;21.88;8.45;;;3.20;77.10;;;;;;4965397;28;89054;-72
2023/01/26 11:59:01;;;;;;;23.48;8.57;;;3.20;76.70;;;;;;4964814;28;88922;-71
2023/01/26 12:01:51;;;;;;;23.63;8.82;;;3.10;76.90;;;;;;4966915;28;87603;-72
2023/01/26 12:04:18;;;;;;;;;;;3.10;77.90;;;;;;4966430;28;88592;-71
2023/01/26 12:07:02;;;;;;;19.20;7.55;;;3.10;77.20;;;;;;4968062;28;88396;-72
2023/01/26 12:09:47;;;;;;;23.67;8.00;;;3.10;77.50;;;;;;4959222;28;89086;-75
2023/01/26 12:12:38;;;;;;;20.55;7.78;;;3.10;78.10;;;;;;4982274;28;87537;-73
2023/01/26 12:15:09;;;;;;;20.48;7.30;;;3.10;77.40;;;;;;4988143;28;86205;-72
2023/01/26 12:18:08;;;;;;;27.98;10.63;;;3.10;77.40;;;;;;4978487;28;87781;-73
2023/01/26 12:20:39;;;;;;;25.25;8.63;;;3.10;77.80;;;;;;4986228;28;89067;-72
2023/01/26 12:23:07;;;;;;;21.83;7.97;;;3.10;78.10;;;;;;4981345;28;88481;-71
2023/01/26 12:25:41;;;;;;;20.08;6.93;;;3.00;77.50;;;;;;4980257;28;89219;-72
2023/01/26 12:28:18;;;;;;;19.55;7.18;;;2.90;78.40;;;;;;4976790;28;88099;-71
2023/01/26 12:31:17;;;;;;;27.75;8.55;;;3.00;78.00;;;;;;4976001;28;88179;-74
2023/01/26 12:33:43;;;;;;;17.48;6.30;;;3.10;78.20;;;;;;4983480;28;87681;-72
2023/01/26 12:36:36;;;;;;;20.10;6.63;;;3.10;78.30;;;;;;4971245;28;87428;-74
2023/01/26 12:39:28;;;;;;;22.90;7.30;;;3.00;78.90;;;;;;4967932;28;88165;-71
2023/01/26 12:42:13;;;;;;;21.98;7.80;;;3.00;78.10;;;;;;4975941;28;87436;-72
2023/01/26 12:44:40;;;;;;;19.15;7.68;;;2.80;78.50;;;;;;4977526;28;87466;-71
2023/01/26 12:47:30;;;;;;;20.60;7.65;;;2.80;78.90;;;;;;4976668;28;87571;-71
2023/01/26 12:49:59;;;;;;;18.42;7.47;;;2.70;79.50;;;;;;4973883;28;89449;-73
2023/01/26 12:52:39;;;;;;;23.90;7.03;;;2.80;79.00;;;;;;4969277;28;87921;-71
2023/01/26 12:55:11;;;;;;;17.95;7.28;;;2.80;78.70;;;;;;4982112;28;88044;-73
2023/01/26 12:57:44;;;;;;;21.10;7.63;;;2.80;78.90;;;;;;4975462;28;87332;-73
2023/01/26 13:00:30;;;;;;;17.23;6.85;;;2.80;79.00;;;;;;4973771;28;88277;-71
2023/01/26 13:03:02;;;;;;;29.60;9.38;;;2.90;78.90;;;;;;4975956;28;87598;-71
2023/01/26 13:05:29;;;;;;;19.60;6.88;;;3.00;78.70;;;;;;4974939;28;88518;-71
2023/01/26 13:07:55;;;;;;;18.52;6.57;;;3.00;77.90;;;;;;4978079;28;87814;-72
2023/01/26 13:10:26;;;;;;;19.23;7.00;;;3.10;77.80;;;;;;4977591;28;88395;-73
2023/01/26 13:13:20;;;;;;;;;;;3.10;77.80;;;;;;4997232;28;88443;-71
2023/01/26 13:15:46;;;;;;;17.27;6.38;;;3.10;77.90;;;;;;4987460;28;88885;-72
2023/01/26 13:18:16;;;;;;;21.15;6.07;;;3.00;78.00;;;;;;4973109;28;87457;-73
2023/01/26 13:20:47;;;;;;;16.58;6.55;;;3.10;77.50;;;;;;4982860;28;88549;-72
2023/01/26 13:23:25;;;;;;;;;;;3.00;77.60;;;;;;4980187;28;89789;-70
2023/01/26 13:26:38;;;;;;;19.35;6.47;;;3.10;77.80;;;;;;4978980;28;87761;-70
2023/01/26 13:29:50;;;;;;;15.88;5.72;;;3.30;77.60;;;;;;4975698;28;87200;-74
2023/01/26 13:32:19;;;;;;;18.63;6.43;;;3.30;76.40;;;;;;4970800;28;88185;-74
2023/01/26 13:34:56;;;;;;;16.15;5.90;;;3.30;75.90;;;;;;4976953;28;87338;-73
2023/01/26 13:37:21;;;;;;;;;;;3.20;76.00;;;;;;4986017;28;87811;-71
2023/01/26 13:39:53;;;;;;;13.52;5.45;;;3.20;75.90;;;;;;4986367;28;87474;-72
2023/01/26 13:42:23;;;;;;;17.73;5.93;;;3.20;76.10;;;;;;4965254;28;88672;-71
2023/01/26 13:44:59;;;;;;;18.77;6.22;;;3.20;76.50;;;;;;4968831;28;88801;-72
2023/01/26 13:47:37;;;;;;;19.92;6.95;;;3.30;76.70;;;;;;4987517;28;88308;-70